createdAt,value
2022-09-18T00:01:39.027Z,87.70
2022-09-18T00:04:09.123Z,87.80
2022-09-18T00:06:39.569Z,87.80
2022-09-18T00:09:11.033Z,88.00
2022-09-18T00:11:42.246Z,88.10
2022-09-18T00:14:13.643Z,88.30
2022-09-18T00:16:42.568Z,88.30
2022-09-18T00:19:11.269Z,88.30
2022-09-18T00:21:42.208Z,88.30
2022-09-18T00:24:10.464Z,88.30
2022-09-18T00:26:40.229Z,88.20
2022-09-18T00:29:08.491Z,88.20
2022-09-18T00:31:37.479Z,88.20
2022-09-18T00:34:08.666Z,88.30
2022-09-18T00:36:38.438Z,88.30
2022-09-18T00:39:07.234Z,88.40
2022-09-18T00:41:38.093Z,88.40
2022-09-18T00:44:37.478Z,88.30
2022-09-18T00:47:30.709Z,88.40
2022-09-18T00:50:04.480Z,88.40
2022-09-18T00:52:41.304Z,88.30
2022-09-18T00:55:11.469Z,88.30
2022-09-18T00:57:44.590Z,88.40
2022-09-18T01:00:15.561Z,88.60
2022-09-18T01:02:46.065Z,88.80
2022-09-18T01:05:16.019Z,89.30
2022-09-18T01:07:56.173Z,90.20
2022-09-18T01:10:39.991Z,90.80
2022-09-18T01:13:18.049Z,90.50
2022-09-18T01:15:53.631Z,90.50
2022-09-18T01:18:30.977Z,90.70
2022-09-18T01:21:13.146Z,91.00
2022-09-18T01:24:20.340Z,91.10
2022-09-18T01:26:55.226Z,91.20
2022-09-18T01:29:35.887Z,91.20
2022-09-18T01:32:09.624Z,91.60
2022-09-18T01:34:46.158Z,91.60
2022-09-18T01:37:20.628Z,91.80
2022-09-18T01:39:54.699Z,91.90
2022-09-18T01:42:27.036Z,92.20
2022-09-18T01:45:00.530Z,92.30
2022-09-18T01:47:34.154Z,92.50
2022-09-18T01:50:04.112Z,92.80
2022-09-18T01:52:36.792Z,92.90
2022-09-18T01:55:10.908Z,93.20
2022-09-18T01:57:44.573Z,93.20
2022-09-18T02:00:15.182Z,93.20
2022-09-18T02:02:47.581Z,93.10
2022-09-18T02:05:20.551Z,93.00
2022-09-18T02:07:54.944Z,92.90
2022-09-18T02:10:26.045Z,92.70
2022-09-18T02:12:56.991Z,92.50
2022-09-18T02:15:28.209Z,92.50
2022-09-18T02:17:59.725Z,92.10
2022-09-18T02:20:30.426Z,91.20
2022-09-18T02:23:01.372Z,90.30
2022-09-18T02:25:34.333Z,87.10
2022-09-18T02:28:04.651Z,85.20
2022-09-18T02:30:35.170Z,83.60
2022-09-18T02:33:03.424Z,82.30
2022-09-18T02:35:42.988Z,82.70
2022-09-18T02:38:19.007Z,81.90
2022-09-18T02:40:59.148Z,80.90
2022-09-18T02:43:38.739Z,80.80
2022-09-18T02:46:18.083Z,80.70
2022-09-18T02:48:55.766Z,80.30
2022-09-18T02:51:32.727Z,80.00
2022-09-18T02:54:07.529Z,79.70
2022-09-18T02:56:41.298Z,79.40
2022-09-18T02:59:13.766Z,79.10
2022-09-18T03:01:45.690Z,79.50
2022-09-18T03:04:16.331Z,80.00
2022-09-18T03:06:45.015Z,80.30
2022-09-18T03:09:13.287Z,80.80
2022-09-18T03:11:41.542Z,81.20
2022-09-18T03:14:09.941Z,81.30
2022-09-18T03:16:38.245Z,81.40
2022-09-18T03:19:07.968Z,81.20
2022-09-18T03:21:36.233Z,81.10
2022-09-18T03:24:04.554Z,80.30
2022-09-18T03:26:33.086Z,79.40
2022-09-18T03:29:01.299Z,79.50
2022-09-18T03:31:29.711Z,79.50
2022-09-18T03:33:58.171Z,79.10
2022-09-18T03:36:27.800Z,79.20
2022-09-18T03:38:56.083Z,78.80
2022-09-18T03:41:24.371Z,78.90
2022-09-18T03:43:52.994Z,78.90
2022-09-18T03:46:24.207Z,78.30
2022-09-18T03:48:53.187Z,77.90
2022-09-18T03:51:22.132Z,77.40
2022-09-18T03:53:52.340Z,77.20
2022-09-18T03:56:20.764Z,77.20
2022-09-18T03:58:49.007Z,77.30
2022-09-18T04:01:17.225Z,77.10
2022-09-18T04:03:45.451Z,77.10
2022-09-18T04:06:13.709Z,77.20
2022-09-18T04:08:41.996Z,77.10
2022-09-18T04:11:13.602Z,77.20
2022-09-18T04:13:42.093Z,77.50
2022-09-18T04:16:10.414Z,77.40
2022-09-18T04:18:38.715Z,77.60
2022-09-18T04:21:07.280Z,77.70
2022-09-18T04:23:35.572Z,77.80
2022-09-18T04:26:09.123Z,77.80
2022-09-18T04:28:39.274Z,77.90
2022-09-18T04:31:07.750Z,78.50
2022-09-18T04:33:36.057Z,78.40
2022-09-18T04:36:04.360Z,78.50
2022-09-18T04:38:32.584Z,78.40
2022-09-18T04:41:01.968Z,78.50
2022-09-18T04:43:30.549Z,78.20
2022-09-18T04:46:00.336Z,77.80
2022-09-18T04:48:28.713Z,78.10
2022-09-18T04:50:57.159Z,78.00
2022-09-18T04:53:25.371Z,77.70
2022-09-18T04:55:53.717Z,77.90
2022-09-18T04:58:22.081Z,77.20
2022-09-18T05:00:51.118Z,77.20
2022-09-18T05:03:22.688Z,77.20
2022-09-18T05:05:51.118Z,76.90
2022-09-18T05:08:19.458Z,76.70
2022-09-18T05:10:47.704Z,76.50
2022-09-18T05:13:16.203Z,76.60
2022-09-18T05:15:44.471Z,76.20
2022-09-18T05:18:13.983Z,76.40
2022-09-18T05:20:43.581Z,76.10
2022-09-18T05:23:11.812Z,76.00
2022-09-18T05:25:40.083Z,75.40
2022-09-18T05:28:08.291Z,75.70
2022-09-18T05:30:36.582Z,75.20
2022-09-18T05:33:07.256Z,75.10
2022-09-18T05:35:37.519Z,75.10
2022-09-18T05:38:07.591Z,74.40
2022-09-18T05:40:37.472Z,74.50
2022-09-18T05:43:07.379Z,74.00
2022-09-18T05:45:35.753Z,74.00
2022-09-18T05:48:06.050Z,74.00
2022-09-18T05:50:36.409Z,74.10
2022-09-18T05:53:08.078Z,73.50
2022-09-18T05:55:36.372Z,73.60
2022-09-18T05:58:06.154Z,73.70
2022-09-18T06:00:36.359Z,73.40
2022-09-18T06:03:06.809Z,73.40
2022-09-18T06:05:37.701Z,72.90
2022-09-18T06:08:09.517Z,73.50
2022-09-18T06:10:39.697Z,73.20
2022-09-18T06:13:09.090Z,72.80
2022-09-18T06:15:38.331Z,72.60
2022-09-18T06:18:08.810Z,72.90
2022-09-18T06:20:37.529Z,73.00
2022-09-18T06:23:06.110Z,73.20
2022-09-18T06:25:36.558Z,72.60
2022-09-18T06:28:06.603Z,73.20
2022-09-18T06:30:36.810Z,72.90
2022-09-18T06:33:06.553Z,72.60
2022-09-18T06:35:35.730Z,72.70
2022-09-18T06:38:04.302Z,72.60
2022-09-18T06:40:33.292Z,71.90
2022-09-18T06:43:03.851Z,72.20
2022-09-18T06:45:32.689Z,71.50
2022-09-18T06:48:04.843Z,71.00
2022-09-18T06:50:33.467Z,71.00
2022-09-18T06:53:05.890Z,70.70
2022-09-18T06:55:37.166Z,70.90
2022-09-18T06:58:06.860Z,70.90
2022-09-18T07:00:35.215Z,70.10
2022-09-18T07:03:04.456Z,70.50
2022-09-18T07:05:33.995Z,69.90
2022-09-18T07:08:02.657Z,69.90
2022-09-18T07:10:38.759Z,69.10
2022-09-18T07:13:08.593Z,69.20
2022-09-18T07:15:37.181Z,69.00
2022-09-18T07:18:06.967Z,69.40
2022-09-18T07:20:35.371Z,69.20
2022-09-18T07:23:03.868Z,68.40
2022-09-18T07:25:34.376Z,67.90
2022-09-18T07:28:08.950Z,67.70
2022-09-18T07:30:37.280Z,66.70
2022-09-18T07:33:07.066Z,66.80
2022-09-18T07:35:35.429Z,66.60
2022-09-18T07:38:06.039Z,68.10
2022-09-18T07:40:35.115Z,66.50
2022-09-18T07:43:05.471Z,65.50
2022-09-18T07:45:35.622Z,65.80
2022-09-18T07:48:05.024Z,65.90
2022-09-18T07:50:33.594Z,64.80
2022-09-18T07:53:03.749Z,64.60
2022-09-18T07:55:49.065Z,65.40
2022-09-18T07:58:17.566Z,65.10
2022-09-18T08:00:47.547Z,65.20
2022-09-18T08:03:16.203Z,64.20
2022-09-18T08:05:44.531Z,64.60
2022-09-18T08:08:14.514Z,64.30
2022-09-18T08:10:44.631Z,64.20
2022-09-18T08:13:13.699Z,64.10
2022-09-18T08:15:43.462Z,63.90
2022-09-18T08:18:13.198Z,64.20
2022-09-18T08:20:41.707Z,64.20
2022-09-18T08:23:12.515Z,63.00
2022-09-18T08:25:42.253Z,63.60
2022-09-18T08:28:11.826Z,63.20
2022-09-18T08:30:40.083Z,62.90
2022-09-18T08:33:09.695Z,61.90
2022-09-18T08:35:39.317Z,61.20
2022-09-18T08:38:10.421Z,60.80
2022-09-18T08:40:58.587Z,61.10
2022-09-18T08:43:48.665Z,61.60
2022-09-18T08:46:21.348Z,59.80
2022-09-18T08:48:58.072Z,59.60
2022-09-18T08:51:32.095Z,60.00
2022-09-18T08:54:17.899Z,60.00
2022-09-18T08:56:47.785Z,59.20
2022-09-18T08:59:24.042Z,58.50
2022-09-18T09:02:00.447Z,57.90
2022-09-18T09:04:29.123Z,57.90
2022-09-18T09:07:10.122Z,57.50
2022-09-18T09:09:53.667Z,57.80
2022-09-18T09:12:30.148Z,57.20
2022-09-18T09:15:30.970Z,57.40
2022-09-18T09:18:13.456Z,57.20
2022-09-18T09:20:50.787Z,57.10
2022-09-18T09:23:43.394Z,56.60
2022-09-18T09:26:14.635Z,55.90
2022-09-18T09:28:53.240Z,56.50
2022-09-18T09:31:26.012Z,55.90
2022-09-18T09:33:59.433Z,56.30
2022-09-18T09:36:30.583Z,54.10
2022-09-18T09:39:07.373Z,54.80
2022-09-18T09:41:41.691Z,55.40
2022-09-18T09:44:26.240Z,54.50
2022-09-18T09:47:05.429Z,54.20
2022-09-18T09:49:40.306Z,54.20
2022-09-18T09:52:17.603Z,53.30
2022-09-18T09:54:47.352Z,53.30
2022-09-18T09:57:23.146Z,54.00
2022-09-18T10:00:00.716Z,53.10
2022-09-18T10:02:42.728Z,53.70
2022-09-18T10:05:24.958Z,52.80
2022-09-18T10:08:03.118Z,53.60
2022-09-18T10:10:40.770Z,53.20
2022-09-18T10:13:15.866Z,53.10
2022-09-18T10:15:46.988Z,52.30
2022-09-18T10:18:18.439Z,50.80
2022-09-18T10:20:49.034Z,50.90
2022-09-18T10:23:25.628Z,51.30
2022-09-18T10:25:58.337Z,51.60
2022-09-18T10:28:29.617Z,52.00
2022-09-18T10:31:01.581Z,51.10
2022-09-18T10:33:36.249Z,50.40
2022-09-18T10:36:11.158Z,51.00
2022-09-18T10:38:40.040Z,50.40
2022-09-18T10:41:33.719Z,50.00
2022-09-18T10:44:25.028Z,49.90
2022-09-18T10:46:57.165Z,50.20
2022-09-18T10:49:29.531Z,50.70
2022-09-18T10:52:21.728Z,50.70
2022-09-18T10:55:01.712Z,50.00
2022-09-18T10:57:33.803Z,49.40
2022-09-18T11:00:04.057Z,48.90
2022-09-18T11:02:39.686Z,48.40
2022-09-18T11:05:18.027Z,49.50
2022-09-18T11:07:49.923Z,48.80
2022-09-18T11:10:19.708Z,48.50
2022-09-18T11:12:55.525Z,48.50
2022-09-18T11:15:26.828Z,48.50
2022-09-18T11:17:56.942Z,48.90
2022-09-18T11:20:28.959Z,48.10
2022-09-18T11:23:25.175Z,47.20
2022-09-18T11:26:12.354Z,47.80
2022-09-18T11:28:42.414Z,48.50
2022-09-18T11:31:16.268Z,48.40
2022-09-18T11:33:48.054Z,48.80
2022-09-18T11:36:24.711Z,49.00
2022-09-18T11:38:53.107Z,49.20
2022-09-18T11:41:26.002Z,48.30
2022-09-18T11:44:03.108Z,48.70
2022-09-18T11:46:43.602Z,48.80
2022-09-18T11:49:17.799Z,48.50
2022-09-18T11:51:50.505Z,48.50
2022-09-18T11:54:27.159Z,48.80
2022-09-18T11:57:00.360Z,48.50
2022-09-18T11:59:33.909Z,48.50
2022-09-18T12:02:11.626Z,48.70
2022-09-18T12:04:49.432Z,49.10
2022-09-18T12:07:37.752Z,48.60
2022-09-18T12:10:16.512Z,48.60
2022-09-18T12:12:48.256Z,48.30
2022-09-18T12:15:21.808Z,48.30
2022-09-18T12:17:55.395Z,48.50
2022-09-18T12:20:27.723Z,48.10
2022-09-18T12:22:57.757Z,47.80
2022-09-18T12:25:41.393Z,47.80
2022-09-18T12:28:20.443Z,47.90
2022-09-18T12:30:58.392Z,48.00
2022-09-18T12:33:38.323Z,47.70
2022-09-18T12:36:22.226Z,48.40
2022-09-18T12:39:12.788Z,48.60
2022-09-18T12:41:53.304Z,48.00
2022-09-18T12:44:43.852Z,47.70
2022-09-18T12:47:46.217Z,47.60
2022-09-18T12:50:36.649Z,47.10
2022-09-18T12:53:19.213Z,47.00
2022-09-18T12:56:02.437Z,47.60
2022-09-18T12:58:51.867Z,47.30
2022-09-18T13:01:28.963Z,47.20
2022-09-18T13:04:10.084Z,47.10
2022-09-18T13:06:44.145Z,46.90
2022-09-18T13:09:23.908Z,46.90
2022-09-18T13:11:58.670Z,46.60
2022-09-18T13:14:33.364Z,46.90
2022-09-18T13:17:07.580Z,46.80
2022-09-18T13:19:42.717Z,46.00
2022-09-18T13:22:15.689Z,46.20
2022-09-18T13:24:44.879Z,46.10
2022-09-18T13:27:16.731Z,45.70
2022-09-18T13:29:59.028Z,45.70
2022-09-18T13:32:40.319Z,45.20
2022-09-18T13:35:22.089Z,45.40
2022-09-18T13:38:04.134Z,45.20
2022-09-18T13:40:37.460Z,44.60
2022-09-18T13:43:25.719Z,44.70
2022-09-18T13:45:55.270Z,42.00
2022-09-18T13:48:28.266Z,41.10
2022-09-18T13:51:00.026Z,39.90
2022-09-18T13:53:41.787Z,39.20
2022-09-18T13:56:12.202Z,38.90
2022-09-18T13:58:50.966Z,40.20
2022-09-18T14:02:02.544Z,41.40
2022-09-18T14:04:59.048Z,41.50
2022-09-18T14:08:01.196Z,42.20
2022-09-18T14:10:33.280Z,42.60
2022-09-18T14:13:30.264Z,42.80
2022-09-18T14:16:09.659Z,43.10
2022-09-18T14:18:53.377Z,43.60
2022-09-18T14:21:26.670Z,44.00
2022-09-18T14:24:37.712Z,44.00
2022-09-18T14:27:39.420Z,44.70
2022-09-18T14:30:18.165Z,44.80
2022-09-18T14:33:17.561Z,45.10
2022-09-18T14:35:52.227Z,44.90
2022-09-18T14:38:34.739Z,45.10
2022-09-18T14:41:11.779Z,44.80
2022-09-18T14:43:48.426Z,44.80
2022-09-18T14:46:20.541Z,45.10
2022-09-18T14:48:49.404Z,45.40
2022-09-18T14:51:21.241Z,45.10
2022-09-18T14:53:52.066Z,45.10
2022-09-18T14:56:27.048Z,45.20
2022-09-18T14:58:58.034Z,45.20
2022-09-18T15:01:29.436Z,45.50
2022-09-18T15:04:00.083Z,45.30
2022-09-18T15:06:35.177Z,45.10
2022-09-18T15:09:05.020Z,44.90
2022-09-18T15:11:46.863Z,44.70
2022-09-18T15:14:24.523Z,45.10
2022-09-18T15:16:56.738Z,44.90
2022-09-18T15:19:25.165Z,44.90
2022-09-18T15:21:54.392Z,45.20
2022-09-18T15:24:22.745Z,45.20
2022-09-18T15:26:56.241Z,44.90
2022-09-18T15:29:31.032Z,44.30
2022-09-18T15:31:59.841Z,44.40
2022-09-18T15:34:30.420Z,44.40
2022-09-18T15:37:01.379Z,44.00
2022-09-18T15:39:32.889Z,43.50
2022-09-18T15:42:20.313Z,43.10
2022-09-18T15:45:22.413Z,43.20
2022-09-18T15:47:51.156Z,43.80
2022-09-18T15:50:40.288Z,43.60
2022-09-18T15:53:29.581Z,43.60
2022-09-18T15:56:09.517Z,43.60
2022-09-18T15:58:52.921Z,43.50
2022-09-18T16:01:27.291Z,43.60
2022-09-18T16:04:05.537Z,44.00
2022-09-18T16:06:49.271Z,43.80
2022-09-18T16:09:42.122Z,44.20
2022-09-18T16:12:43.538Z,44.50
2022-09-18T16:15:23.191Z,44.50
2022-09-18T16:18:02.102Z,44.50
2022-09-18T16:20:37.186Z,44.70
2022-09-18T16:23:19.685Z,44.80
2022-09-18T16:26:01.450Z,44.80
2022-09-18T16:28:32.467Z,44.80
2022-09-18T16:31:00.970Z,44.90
2022-09-18T16:33:32.566Z,45.00
2022-09-18T16:36:04.093Z,45.00
2022-09-18T16:38:33.236Z,45.10
2022-09-18T16:41:01.647Z,45.10
2022-09-18T16:43:30.186Z,45.30
2022-09-18T16:45:58.434Z,45.60
2022-09-18T16:48:26.724Z,45.70
2022-09-18T16:50:56.543Z,45.90
2022-09-18T16:53:24.974Z,46.10
2022-09-18T16:55:57.235Z,46.20
2022-09-18T16:58:29.092Z,46.20
2022-09-18T17:00:58.890Z,46.00
2022-09-18T17:03:28.061Z,46.00
2022-09-18T17:05:57.940Z,46.00
2022-09-18T17:08:26.330Z,46.40
2022-09-18T17:10:54.576Z,46.50
2022-09-18T17:13:23.215Z,46.50
2022-09-18T17:15:51.569Z,46.60
2022-09-18T17:18:19.821Z,46.80
2022-09-18T17:20:48.085Z,47.10
2022-09-18T17:23:17.755Z,47.20
2022-09-18T17:25:46.039Z,47.30
2022-09-18T17:28:17.771Z,47.50
2022-09-18T17:30:46.009Z,47.60
2022-09-18T17:33:20.962Z,47.80
2022-09-18T17:35:49.237Z,47.90
2022-09-18T17:38:18.904Z,48.10
2022-09-18T17:40:57.506Z,48.00
2022-09-18T17:43:26.275Z,48.10
2022-09-18T17:45:56.263Z,48.20
2022-09-18T17:48:25.566Z,48.30
2022-09-18T17:50:58.670Z,48.40
2022-09-18T17:53:28.825Z,48.50
2022-09-18T17:55:59.168Z,48.60
2022-09-18T17:58:27.883Z,48.70
2022-09-18T18:00:56.858Z,48.80
2022-09-18T18:03:26.089Z,48.90
2022-09-18T18:05:55.138Z,48.70
2022-09-18T18:08:23.455Z,48.70
2022-09-18T18:10:53.106Z,48.80
2022-09-18T18:13:21.462Z,48.90
2022-09-18T18:15:50.190Z,48.70
2022-09-18T18:18:19.813Z,49.50
2022-09-18T18:20:50.974Z,49.00
2022-09-18T18:23:19.464Z,49.10
2022-09-18T18:25:48.367Z,49.20
2022-09-18T18:28:18.130Z,49.30
2022-09-18T18:30:47.780Z,49.30
2022-09-18T18:33:16.019Z,49.40
2022-09-18T18:35:44.289Z,49.50
2022-09-18T18:38:12.630Z,49.70
2022-09-18T18:40:40.954Z,49.80
2022-09-18T18:43:15.096Z,49.90
2022-09-18T18:45:53.731Z,50.00
2022-09-18T18:48:22.347Z,50.00
2022-09-18T18:50:51.311Z,50.10
2022-09-18T18:53:19.553Z,50.20
2022-09-18T18:55:49.271Z,50.40
2022-09-18T18:58:17.605Z,50.50
2022-09-18T19:00:46.556Z,50.60
2022-09-18T19:03:16.266Z,50.80
2022-09-18T19:05:44.501Z,51.00
2022-09-18T19:08:14.139Z,51.10
2022-09-18T19:10:42.456Z,51.20
2022-09-18T19:13:10.683Z,51.30
2022-09-18T19:15:38.893Z,51.50
2022-09-18T19:18:07.146Z,51.70
2022-09-18T19:20:36.810Z,51.90
2022-09-18T19:23:06.934Z,52.10
2022-09-18T19:25:35.859Z,52.20
2022-09-18T19:28:04.176Z,52.40
2022-09-18T19:30:36.106Z,52.60
2022-09-18T19:33:04.751Z,52.70
2022-09-18T19:35:37.567Z,52.80
2022-09-18T19:38:06.146Z,52.90
2022-09-18T19:40:38.170Z,53.00
2022-09-18T19:43:08.866Z,53.20
2022-09-18T19:45:38.536Z,53.20
2022-09-18T19:48:11.225Z,53.40
2022-09-18T19:50:41.314Z,53.50
2022-09-18T19:53:09.562Z,53.70
2022-09-18T19:55:38.711Z,53.80
2022-09-18T19:58:07.243Z,54.00
2022-09-18T20:00:37.121Z,54.00
2022-09-18T20:03:05.537Z,54.10
2022-09-18T20:05:34.169Z,54.00
2022-09-18T20:08:06.384Z,54.20
2022-09-18T20:10:35.637Z,54.20
2022-09-18T20:13:03.961Z,54.20
2022-09-18T20:15:32.277Z,54.30
2022-09-18T20:18:00.641Z,54.30
2022-09-18T20:20:28.908Z,54.40
2022-09-18T20:22:57.308Z,54.40
2022-09-18T20:25:27.023Z,54.40
2022-09-18T20:27:55.287Z,54.40
2022-09-18T20:30:23.569Z,54.60
2022-09-18T20:32:54.358Z,54.60
2022-09-18T20:35:22.691Z,54.70
2022-09-18T20:37:51.555Z,54.90
2022-09-18T20:40:20.042Z,55.10
2022-09-18T20:42:51.600Z,55.20
2022-09-18T20:45:20.209Z,55.30
2022-09-18T20:47:48.506Z,55.50
2022-09-18T20:50:17.280Z,55.70
2022-09-18T20:52:45.646Z,55.70
2022-09-18T20:55:17.578Z,55.90
2022-09-18T20:57:46.385Z,55.90
2022-09-18T21:00:17.197Z,55.90
2022-09-18T21:02:46.009Z,56.00
2022-09-18T21:05:14.626Z,56.00
2022-09-18T21:07:43.794Z,56.00
2022-09-18T21:10:12.855Z,56.20
2022-09-18T21:12:41.312Z,56.20
2022-09-18T21:15:13.132Z,56.30
2022-09-18T21:17:43.126Z,56.30
2022-09-18T21:20:12.195Z,56.50
2022-09-18T21:23:00.535Z,56.50
2022-09-18T21:25:31.391Z,56.50
2022-09-18T21:27:59.845Z,56.70
2022-09-18T21:30:28.142Z,56.90
2022-09-18T21:32:59.160Z,57.00
2022-09-18T21:35:27.415Z,57.80
2022-09-18T21:37:55.712Z,57.30
2022-09-18T21:40:24.203Z,57.40
2022-09-18T21:42:52.911Z,57.40
2022-09-18T21:45:21.189Z,57.50
2022-09-18T21:47:51.488Z,57.50
2022-09-18T21:50:22.438Z,57.50
2022-09-18T21:52:50.696Z,57.70
2022-09-18T21:55:20.655Z,57.80
2022-09-18T21:57:48.957Z,58.50
2022-09-18T22:00:17.353Z,58.00
2022-09-18T22:02:45.620Z,58.10
2022-09-18T22:05:14.774Z,58.00
2022-09-18T22:07:47.204Z,58.20
2022-09-18T22:10:16.201Z,58.30
2022-09-18T22:12:44.471Z,58.50
2022-09-18T22:15:12.721Z,58.40
2022-09-18T22:17:40.969Z,58.60
2022-09-18T22:20:09.910Z,58.80
2022-09-18T22:22:38.296Z,59.00
2022-09-18T22:25:08.509Z,59.00
2022-09-18T22:27:37.078Z,59.20
2022-09-18T22:30:07.216Z,59.30
2022-09-18T22:32:35.475Z,59.30
2022-09-18T22:35:04.019Z,59.40
2022-09-18T22:37:32.523Z,59.50
2022-09-18T22:40:00.848Z,59.70
2022-09-18T22:42:31.064Z,59.60
2022-09-18T22:44:59.889Z,59.60
2022-09-18T22:47:28.233Z,59.80
2022-09-18T22:49:56.475Z,59.90
2022-09-18T22:52:24.840Z,59.90
2022-09-18T22:54:53.073Z,60.00
2022-09-18T22:57:21.293Z,60.10
2022-09-18T22:59:50.929Z,60.10
2022-09-18T23:02:19.855Z,60.10
2022-09-18T23:04:48.339Z,60.40
2022-09-18T23:07:17.878Z,60.50
2022-09-18T23:09:47.412Z,60.60
2022-09-18T23:12:15.680Z,60.50
2022-09-18T23:14:43.973Z,60.60
2022-09-18T23:17:13.644Z,60.80
2022-09-18T23:19:42.308Z,60.80
2022-09-18T23:22:12.302Z,61.10
2022-09-18T23:24:40.600Z,61.10
2022-09-18T23:27:08.899Z,61.20
2022-09-18T23:29:39.066Z,61.40
2022-09-18T23:32:07.544Z,61.40
2022-09-18T23:34:37.206Z,61.40
2022-09-18T23:37:05.573Z,61.30
2022-09-18T23:39:35.269Z,62.20
2022-09-18T23:42:05.870Z,61.90
2022-09-18T23:44:34.559Z,61.90
2022-09-18T23:47:03.198Z,61.90
2022-09-18T23:49:32.051Z,62.20
2022-09-18T23:52:02.677Z,62.40
2022-09-18T23:54:32.616Z,62.50
2022-09-18T23:57:00.893Z,62.50
2022-09-18T23:59:29.273Z,62.50
